sensor_id;sensor_type;location;lat;lon;timestamp;P1;durP1;ratioP1;P2;durP2;ratioP2
72156;SDS011;60035;52.122;5.406;2024-03-08T00:02:25;32.30;;;11.00;;
72156;SDS011;60035;52.122;5.406;2024-03-08T00:04:56;33.45;;;13.60;;
72156;SDS011;60035;52.122;5.406;2024-03-08T00:07:28;31.05;;;11.93;;
72156;SDS011;60035;52.122;5.406;2024-03-08T00:10:02;29.83;;;12.57;;
72156;SDS011;60035;52.122;5.406;2024-03-08T00:12:34;31.65;;;11.27;;
72156;SDS011;60035;52.122;5.406;2024-03-08T00:15:06;30.77;;;11.13;;
72156;SDS011;60035;52.122;5.406;2024-03-08T00:17:42;28.98;;;10.88;;
72156;SDS011;60035;52.122;5.406;2024-03-08T00:20:15;27.92;;;11.70;;
72156;SDS011;60035;52.122;5.406;2024-03-08T00:22:47;28.83;;;11.20;;
72156;SDS011;60035;52.122;5.406;2024-03-08T00:25:24;27.33;;;10.48;;
72156;SDS011;60035;52.122;5.406;2024-03-08T00:27:55;33.67;;;11.52;;
72156;SDS011;60035;52.122;5.406;2024-03-08T00:30:27;30.08;;;11.75;;
72156;SDS011;60035;52.122;5.406;2024-03-08T00:35:30;28.30;;;10.23;;
72156;SDS011;60035;52.122;5.406;2024-03-08T00:38:01;32.17;;;11.10;;
72156;SDS011;60035;52.122;5.406;2024-03-08T00:40:35;30.20;;;10.35;;
72156;SDS011;60035;52.122;5.406;2024-03-08T00:43:07;28.08;;;11.40;;
72156;SDS011;60035;52.122;5.406;2024-03-08T00:45:39;30.85;;;11.88;;
72156;SDS011;60035;52.122;5.406;2024-03-08T00:48:10;27.60;;;10.98;;
72156;SDS011;60035;52.122;5.406;2024-03-08T00:50:42;30.40;;;11.80;;
72156;SDS011;60035;52.122;5.406;2024-03-08T00:53:15;26.27;;;10.27;;
72156;SDS011;60035;52.122;5.406;2024-03-08T00:55:49;27.55;;;11.57;;
72156;SDS011;60035;52.122;5.406;2024-03-08T00:58:22;26.88;;;9.55;;
72156;SDS011;60035;52.122;5.406;2024-03-08T01:00:53;25.95;;;11.73;;
72156;SDS011;60035;52.122;5.406;2024-03-08T01:03:25;28.08;;;11.68;;
72156;SDS011;60035;52.122;5.406;2024-03-08T01:05:59;27.95;;;10.93;;
72156;SDS011;60035;52.122;5.406;2024-03-08T01:08:32;30.38;;;11.88;;
72156;SDS011;60035;52.122;5.406;2024-03-08T01:11:08;30.67;;;12.63;;
72156;SDS011;60035;52.122;5.406;2024-03-08T01:13:39;29.33;;;12.10;;
72156;SDS011;60035;52.122;5.406;2024-03-08T01:18:43;27.48;;;11.90;;
72156;SDS011;60035;52.122;5.406;2024-03-08T01:21:14;30.30;;;11.23;;
72156;SDS011;60035;52.122;5.406;2024-03-08T01:26:19;28.02;;;10.25;;
72156;SDS011;60035;52.122;5.406;2024-03-08T01:28:51;30.35;;;11.60;;
72156;SDS011;60035;52.122;5.406;2024-03-08T01:33:53;28.50;;;11.93;;
72156;SDS011;60035;52.122;5.406;2024-03-08T01:36:25;28.80;;;11.80;;
72156;SDS011;60035;52.122;5.406;2024-03-08T01:38:56;28.45;;;11.55;;
72156;SDS011;60035;52.122;5.406;2024-03-08T01:41:30;29.08;;;10.75;;
72156;SDS011;60035;52.122;5.406;2024-03-08T01:44:04;27.35;;;10.43;;
72156;SDS011;60035;52.122;5.406;2024-03-08T01:46:36;27.48;;;10.40;;
72156;SDS011;60035;52.122;5.406;2024-03-08T01:49:08;30.40;;;11.43;;
72156;SDS011;60035;52.122;5.406;2024-03-08T01:51:40;30.13;;;10.93;;
72156;SDS011;60035;52.122;5.406;2024-03-08T01:54:12;29.63;;;12.07;;
72156;SDS011;60035;52.122;5.406;2024-03-08T01:56:49;31.75;;;11.35;;
72156;SDS011;60035;52.122;5.406;2024-03-08T01:59:21;31.45;;;11.13;;
72156;SDS011;60035;52.122;5.406;2024-03-08T02:01:54;28.17;;;11.05;;
72156;SDS011;60035;52.122;5.406;2024-03-08T02:04:28;30.80;;;11.70;;
72156;SDS011;60035;52.122;5.406;2024-03-08T02:07:01;28.20;;;10.80;;
72156;SDS011;60035;52.122;5.406;2024-03-08T02:09:37;27.85;;;12.32;;
72156;SDS011;60035;52.122;5.406;2024-03-08T02:12:11;28.33;;;10.98;;
72156;SDS011;60035;52.122;5.406;2024-03-08T02:14:42;27.13;;;10.70;;
72156;SDS011;60035;52.122;5.406;2024-03-08T02:17:14;29.05;;;12.25;;
72156;SDS011;60035;52.122;5.406;2024-03-08T02:19:45;27.85;;;13.00;;
72156;SDS011;60035;52.122;5.406;2024-03-08T02:24:50;30.63;;;12.38;;
72156;SDS011;60035;52.122;5.406;2024-03-08T02:27:23;26.30;;;10.38;;
72156;SDS011;60035;52.122;5.406;2024-03-08T02:29:55;30.17;;;12.15;;
72156;SDS011;60035;52.122;5.406;2024-03-08T02:32:27;28.80;;;12.23;;
72156;SDS011;60035;52.122;5.406;2024-03-08T02:35:00;27.40;;;10.98;;
72156;SDS011;60035;52.122;5.406;2024-03-08T02:37:36;25.80;;;11.20;;
72156;SDS011;60035;52.122;5.406;2024-03-08T02:40:08;28.10;;;10.52;;
72156;SDS011;60035;52.122;5.406;2024-03-08T02:42:40;31.27;;;11.00;;
72156;SDS011;60035;52.122;5.406;2024-03-08T02:45:12;30.67;;;11.98;;
72156;SDS011;60035;52.122;5.406;2024-03-08T02:47:43;26.42;;;10.73;;
72156;SDS011;60035;52.122;5.406;2024-03-08T02:50:16;29.38;;;11.40;;
72156;SDS011;60035;52.122;5.406;2024-03-08T02:52:52;30.25;;;11.98;;
72156;SDS011;60035;52.122;5.406;2024-03-08T02:55:23;28.58;;;11.32;;
72156;SDS011;60035;52.122;5.406;2024-03-08T03:00:26;27.08;;;11.93;;
72156;SDS011;60035;52.122;5.406;2024-03-08T03:02:58;33.05;;;11.75;;
72156;SDS011;60035;52.122;5.406;2024-03-08T03:05:30;34.97;;;12.63;;
72156;SDS011;60035;52.122;5.406;2024-03-08T03:08:05;28.67;;;12.48;;
72156;SDS011;60035;52.122;5.406;2024-03-08T03:10:37;33.10;;;12.38;;
72156;SDS011;60035;52.122;5.406;2024-03-08T03:15:39;27.05;;;10.57;;
72156;SDS011;60035;52.122;5.406;2024-03-08T03:18:11;29.17;;;12.75;;
72156;SDS011;60035;52.122;5.406;2024-03-08T03:20:43;28.98;;;11.23;;
72156;SDS011;60035;52.122;5.406;2024-03-08T03:23:17;31.67;;;13.63;;
72156;SDS011;60035;52.122;5.406;2024-03-08T03:25:50;31.90;;;12.07;;
72156;SDS011;60035;52.122;5.406;2024-03-08T03:28:24;27.00;;;10.60;;
72156;SDS011;60035;52.122;5.406;2024-03-08T03:30:55;30.98;;;12.00;;
72156;SDS011;60035;52.122;5.406;2024-03-08T03:33:28;30.13;;;12.68;;
72156;SDS011;60035;52.122;5.406;2024-03-08T03:36:01;31.00;;;13.07;;
72156;SDS011;60035;52.122;5.406;2024-03-08T03:38:38;30.10;;;13.27;;
72156;SDS011;60035;52.122;5.406;2024-03-08T03:41:10;29.40;;;11.65;;
72156;SDS011;60035;52.122;5.406;2024-03-08T03:43:42;31.02;;;13.55;;
72156;SDS011;60035;52.122;5.406;2024-03-08T03:46:14;32.63;;;12.10;;
72156;SDS011;60035;52.122;5.406;2024-03-08T03:51:16;30.27;;;10.98;;
72156;SDS011;60035;52.122;5.406;2024-03-08T03:53:51;34.50;;;13.88;;
72156;SDS011;60035;52.122;5.406;2024-03-08T03:56:25;27.08;;;11.32;;
72156;SDS011;60035;52.122;5.406;2024-03-08T03:58:57;30.27;;;11.77;;
72156;SDS011;60035;52.122;5.406;2024-03-08T04:04:03;28.38;;;11.60;;
72156;SDS011;60035;52.122;5.406;2024-03-08T04:06:34;28.27;;;12.68;;
72156;SDS011;60035;52.122;5.406;2024-03-08T04:11:39;25.30;;;11.50;;
72156;SDS011;60035;52.122;5.406;2024-03-08T04:16:42;29.15;;;10.70;;
72156;SDS011;60035;52.122;5.406;2024-03-08T04:19:14;26.67;;;12.27;;
72156;SDS011;60035;52.122;5.406;2024-03-08T04:21:46;29.05;;;12.35;;
72156;SDS011;60035;52.122;5.406;2024-03-08T04:24:20;30.48;;;13.07;;
72156;SDS011;60035;52.122;5.406;2024-03-08T04:26:51;27.38;;;11.98;;
72156;SDS011;60035;52.122;5.406;2024-03-08T04:31:54;25.45;;;11.07;;
72156;SDS011;60035;52.122;5.406;2024-03-08T04:36:57;29.15;;;11.70;;
72156;SDS011;60035;52.122;5.406;2024-03-08T04:39:31;30.65;;;11.40;;
72156;SDS011;60035;52.122;5.406;2024-03-08T04:42:03;27.05;;;11.18;;
72156;SDS011;60035;52.122;5.406;2024-03-08T04:44:38;30.80;;;11.45;;
72156;SDS011;60035;52.122;5.406;2024-03-08T04:49:41;31.08;;;11.45;;
72156;SDS011;60035;52.122;5.406;2024-03-08T04:52:12;28.35;;;11.13;;
72156;SDS011;60035;52.122;5.406;2024-03-08T04:57:17;28.50;;;11.50;;
72156;SDS011;60035;52.122;5.406;2024-03-08T04:59:48;33.20;;;12.00;;
72156;SDS011;60035;52.122;5.406;2024-03-08T05:02:20;28.40;;;12.88;;
72156;SDS011;60035;52.122;5.406;2024-03-08T05:04:52;29.85;;;10.55;;
72156;SDS011;60035;52.122;5.406;2024-03-08T05:07:23;36.08;;;13.48;;
72156;SDS011;60035;52.122;5.406;2024-03-08T05:09:57;31.05;;;12.90;;
72156;SDS011;60035;52.122;5.406;2024-03-08T05:12:29;27.05;;;10.55;;
72156;SDS011;60035;52.122;5.406;2024-03-08T05:15:00;28.20;;;11.77;;
72156;SDS011;60035;52.122;5.406;2024-03-08T05:17:34;30.08;;;11.68;;
72156;SDS011;60035;52.122;5.406;2024-03-08T05:20:08;27.25;;;12.10;;
72156;SDS011;60035;52.122;5.406;2024-03-08T05:22:40;29.75;;;13.35;;
72156;SDS011;60035;52.122;5.406;2024-03-08T05:25:15;28.58;;;11.70;;
72156;SDS011;60035;52.122;5.406;2024-03-08T05:27:46;28.58;;;12.70;;
72156;SDS011;60035;52.122;5.406;2024-03-08T05:30:17;29.30;;;13.25;;
72156;SDS011;60035;52.122;5.406;2024-03-08T05:32:49;28.50;;;10.98;;
72156;SDS011;60035;52.122;5.406;2024-03-08T05:35:21;33.65;;;13.10;;
72156;SDS011;60035;52.122;5.406;2024-03-08T05:37:52;30.85;;;12.98;;
72156;SDS011;60035;52.122;5.406;2024-03-08T05:40:27;29.85;;;12.30;;
72156;SDS011;60035;52.122;5.406;2024-03-08T05:42:59;33.40;;;13.73;;
72156;SDS011;60035;52.122;5.406;2024-03-08T05:48:02;32.17;;;11.93;;
72156;SDS011;60035;52.122;5.406;2024-03-08T05:50:35;28.50;;;11.38;;
72156;SDS011;60035;52.122;5.406;2024-03-08T05:53:06;31.75;;;13.30;;
72156;SDS011;60035;52.122;5.406;2024-03-08T05:55:40;27.20;;;11.77;;
72156;SDS011;60035;52.122;5.406;2024-03-08T05:58:12;31.17;;;12.02;;
72156;SDS011;60035;52.122;5.406;2024-03-08T06:00:43;33.05;;;13.57;;
72156;SDS011;60035;52.122;5.406;2024-03-08T06:03:19;29.80;;;14.10;;
72156;SDS011;60035;52.122;5.406;2024-03-08T06:05:50;28.38;;;12.77;;
72156;SDS011;60035;52.122;5.406;2024-03-08T06:08:23;29.30;;;13.02;;
72156;SDS011;60035;52.122;5.406;2024-03-08T06:11:00;36.90;;;12.55;;
72156;SDS011;60035;52.122;5.406;2024-03-08T06:13:33;32.95;;;13.15;;
72156;SDS011;60035;52.122;5.406;2024-03-08T06:16:04;27.08;;;11.98;;
72156;SDS011;60035;52.122;5.406;2024-03-08T06:18:36;31.45;;;13.00;;
72156;SDS011;60035;52.122;5.406;2024-03-08T06:21:09;31.55;;;11.93;;
72156;SDS011;60035;52.122;5.406;2024-03-08T06:23:41;31.65;;;13.80;;
72156;SDS011;60035;52.122;5.406;2024-03-08T06:26:15;34.00;;;13.93;;
72156;SDS011;60035;52.122;5.406;2024-03-08T06:28:46;29.92;;;13.20;;
72156;SDS011;60035;52.122;5.406;2024-03-08T06:31:18;33.75;;;13.57;;
72156;SDS011;60035;52.122;5.406;2024-03-08T06:36:23;30.25;;;12.70;;
72156;SDS011;60035;52.122;5.406;2024-03-08T06:38:55;33.58;;;12.15;;
72156;SDS011;60035;52.122;5.406;2024-03-08T06:44:03;26.92;;;12.57;;
72156;SDS011;60035;52.122;5.406;2024-03-08T06:46:36;27.65;;;10.90;;
72156;SDS011;60035;52.122;5.406;2024-03-08T06:49:08;28.02;;;12.95;;
72156;SDS011;60035;52.122;5.406;2024-03-08T06:54:10;31.00;;;12.00;;
72156;SDS011;60035;52.122;5.406;2024-03-08T06:56:44;33.38;;;12.40;;
72156;SDS011;60035;52.122;5.406;2024-03-08T06:59:16;33.03;;;12.52;;
72156;SDS011;60035;52.122;5.406;2024-03-08T07:01:49;31.33;;;11.88;;
72156;SDS011;60035;52.122;5.406;2024-03-08T07:04:21;34.13;;;13.25;;
72156;SDS011;60035;52.122;5.406;2024-03-08T07:06:56;32.25;;;13.65;;
72156;SDS011;60035;52.122;5.406;2024-03-08T07:09:29;26.92;;;12.63;;
72156;SDS011;60035;52.122;5.406;2024-03-08T07:12:03;29.27;;;11.98;;
72156;SDS011;60035;52.122;5.406;2024-03-08T07:14:36;32.22;;;12.40;;
72156;SDS011;60035;52.122;5.406;2024-03-08T07:17:09;38.95;;;12.40;;
72156;SDS011;60035;52.122;5.406;2024-03-08T07:19:40;28.77;;;12.82;;
72156;SDS011;60035;52.122;5.406;2024-03-08T07:22:12;29.30;;;12.07;;
72156;SDS011;60035;52.122;5.406;2024-03-08T07:24:44;30.83;;;12.63;;
72156;SDS011;60035;52.122;5.406;2024-03-08T07:27:34;30.65;;;11.85;;
72156;SDS011;60035;52.122;5.406;2024-03-08T07:30:06;32.55;;;13.45;;
72156;SDS011;60035;52.122;5.406;2024-03-08T07:32:39;34.08;;;13.27;;
72156;SDS011;60035;52.122;5.406;2024-03-08T07:35:12;37.22;;;12.43;;
72156;SDS011;60035;52.122;5.406;2024-03-08T07:37:46;33.80;;;12.23;;
72156;SDS011;60035;52.122;5.406;2024-03-08T07:42:50;32.13;;;13.57;;
72156;SDS011;60035;52.122;5.406;2024-03-08T07:45:22;30.90;;;12.65;;
72156;SDS011;60035;52.122;5.406;2024-03-08T07:50:25;30.50;;;13.05;;
72156;SDS011;60035;52.122;5.406;2024-03-08T07:52:57;31.83;;;13.85;;
72156;SDS011;60035;52.122;5.406;2024-03-08T07:55:30;30.83;;;13.13;;
72156;SDS011;60035;52.122;5.406;2024-03-08T07:58:05;38.00;;;13.35;;
72156;SDS011;60035;52.122;5.406;2024-03-08T08:00:38;33.38;;;14.82;;
72156;SDS011;60035;52.122;5.406;2024-03-08T08:03:10;31.52;;;13.70;;
72156;SDS011;60035;52.122;5.406;2024-03-08T08:05:43;34.17;;;13.27;;
72156;SDS011;60035;52.122;5.406;2024-03-08T08:08:16;30.45;;;12.15;;
72156;SDS011;60035;52.122;5.406;2024-03-08T08:13:21;30.27;;;13.52;;
72156;SDS011;60035;52.122;5.406;2024-03-08T08:15:55;34.05;;;12.50;;
72156;SDS011;60035;52.122;5.406;2024-03-08T08:18:26;32.60;;;13.65;;
72156;SDS011;60035;52.122;5.406;2024-03-08T08:23:29;32.53;;;12.90;;
72156;SDS011;60035;52.122;5.406;2024-03-08T08:28:34;32.20;;;13.15;;
72156;SDS011;60035;52.122;5.406;2024-03-08T08:31:08;30.10;;;12.70;;
72156;SDS011;60035;52.122;5.406;2024-03-08T08:33:40;30.55;;;12.30;;
72156;SDS011;60035;52.122;5.406;2024-03-08T08:36:15;29.17;;;13.43;;
72156;SDS011;60035;52.122;5.406;2024-03-08T08:38:46;33.03;;;14.13;;
72156;SDS011;60035;52.122;5.406;2024-03-08T08:41:18;33.88;;;12.70;;
72156;SDS011;60035;52.122;5.406;2024-03-08T08:46:40;31.02;;;12.27;;
72156;SDS011;60035;52.122;5.406;2024-03-08T08:49:11;33.28;;;14.68;;
72156;SDS011;60035;52.122;5.406;2024-03-08T08:51:51;36.28;;;14.45;;
72156;SDS011;60035;52.122;5.406;2024-03-08T08:54:25;29.83;;;12.05;;
72156;SDS011;60035;52.122;5.406;2024-03-08T08:56:57;31.77;;;12.23;;
72156;SDS011;60035;52.122;5.406;2024-03-08T08:59:37;31.20;;;13.48;;
72156;SDS011;60035;52.122;5.406;2024-03-08T09:02:08;32.70;;;14.93;;
72156;SDS011;60035;52.122;5.406;2024-03-08T09:04:44;33.65;;;13.45;;
72156;SDS011;60035;52.122;5.406;2024-03-08T09:07:15;31.10;;;14.27;;
72156;SDS011;60035;52.122;5.406;2024-03-08T09:09:47;28.08;;;13.77;;
72156;SDS011;60035;52.122;5.406;2024-03-08T09:12:18;36.17;;;14.70;;
72156;SDS011;60035;52.122;5.406;2024-03-08T09:14:52;31.35;;;13.00;;
72156;SDS011;60035;52.122;5.406;2024-03-08T09:17:23;29.05;;;12.10;;
72156;SDS011;60035;52.122;5.406;2024-03-08T09:19:55;30.10;;;13.23;;
72156;SDS011;60035;52.122;5.406;2024-03-08T09:22:26;29.13;;;14.43;;
72156;SDS011;60035;52.122;5.406;2024-03-08T09:24:58;33.33;;;14.23;;
72156;SDS011;60035;52.122;5.406;2024-03-08T09:27:32;28.10;;;13.45;;
72156;SDS011;60035;52.122;5.406;2024-03-08T09:30:09;30.50;;;14.27;;
72156;SDS011;60035;52.122;5.406;2024-03-08T09:32:42;31.13;;;13.30;;
72156;SDS011;60035;52.122;5.406;2024-03-08T09:35:14;30.88;;;13.68;;
72156;SDS011;60035;52.122;5.406;2024-03-08T09:37:45;30.60;;;14.13;;
72156;SDS011;60035;52.122;5.406;2024-03-08T09:40:19;29.67;;;12.65;;
72156;SDS011;60035;52.122;5.406;2024-03-08T09:42:52;30.92;;;13.20;;
72156;SDS011;60035;52.122;5.406;2024-03-08T09:45:27;28.35;;;12.30;;
72156;SDS011;60035;52.122;5.406;2024-03-08T09:48:02;28.60;;;12.32;;
72156;SDS011;60035;52.122;5.406;2024-03-08T09:50:36;29.92;;;13.73;;
72156;SDS011;60035;52.122;5.406;2024-03-08T09:53:08;29.27;;;12.70;;
72156;SDS011;60035;52.122;5.406;2024-03-08T09:55:39;30.85;;;12.57;;
72156;SDS011;60035;52.122;5.406;2024-03-08T09:58:12;26.52;;;11.50;;
72156;SDS011;60035;52.122;5.406;2024-03-08T10:01:06;32.67;;;11.77;;
72156;SDS011;60035;52.122;5.406;2024-03-08T10:03:39;27.95;;;13.02;;
72156;SDS011;60035;52.122;5.406;2024-03-08T10:06:11;27.95;;;11.85;;
72156;SDS011;60035;52.122;5.406;2024-03-08T10:08:42;32.30;;;13.45;;
72156;SDS011;60035;52.122;5.406;2024-03-08T10:11:14;25.65;;;11.68;;
72156;SDS011;60035;52.122;5.406;2024-03-08T10:13:45;26.55;;;11.75;;
72156;SDS011;60035;52.122;5.406;2024-03-08T10:16:22;27.92;;;12.93;;
72156;SDS011;60035;52.122;5.406;2024-03-08T10:18:53;29.13;;;12.00;;
72156;SDS011;60035;52.122;5.406;2024-03-08T10:21:24;31.25;;;13.48;;
72156;SDS011;60035;52.122;5.406;2024-03-08T10:23:56;26.33;;;11.50;;
72156;SDS011;60035;52.122;5.406;2024-03-08T10:26:28;26.08;;;11.93;;
72156;SDS011;60035;52.122;5.406;2024-03-08T10:28:59;25.75;;;11.98;;
72156;SDS011;60035;52.122;5.406;2024-03-08T10:31:33;28.08;;;12.20;;
72156;SDS011;60035;52.122;5.406;2024-03-08T10:34:06;26.30;;;11.35;;
72156;SDS011;60035;52.122;5.406;2024-03-08T10:36:38;24.52;;;11.70;;
72156;SDS011;60035;52.122;5.406;2024-03-08T10:39:12;25.23;;;12.10;;
72156;SDS011;60035;52.122;5.406;2024-03-08T10:41:56;27.95;;;12.35;;
72156;SDS011;60035;52.122;5.406;2024-03-08T10:44:35;24.70;;;12.10;;
72156;SDS011;60035;52.122;5.406;2024-03-08T10:47:18;26.55;;;11.48;;
72156;SDS011;60035;52.122;5.406;2024-03-08T10:49:59;23.83;;;9.93;;
72156;SDS011;60035;52.122;5.406;2024-03-08T10:52:50;27.25;;;11.15;;
72156;SDS011;60035;52.122;5.406;2024-03-08T10:55:23;21.08;;;10.43;;
72156;SDS011;60035;52.122;5.406;2024-03-08T10:58:02;25.00;;;12.30;;
72156;SDS011;60035;52.122;5.406;2024-03-08T11:00:36;22.38;;;10.85;;
72156;SDS011;60035;52.122;5.406;2024-03-08T11:03:11;23.52;;;10.68;;
72156;SDS011;60035;52.122;5.406;2024-03-08T11:06:16;24.15;;;11.35;;
72156;SDS011;60035;52.122;5.406;2024-03-08T11:08:50;21.98;;;11.13;;
72156;SDS011;60035;52.122;5.406;2024-03-08T11:11:28;25.23;;;12.30;;
72156;SDS011;60035;52.122;5.406;2024-03-08T11:14:02;24.25;;;10.70;;
72156;SDS011;60035;52.122;5.406;2024-03-08T11:16:37;24.63;;;11.90;;
72156;SDS011;60035;52.122;5.406;2024-03-08T11:19:25;25.88;;;11.95;;
72156;SDS011;60035;52.122;5.406;2024-03-08T11:21:59;24.67;;;11.70;;
72156;SDS011;60035;52.122;5.406;2024-03-08T11:24:40;22.25;;;11.35;;
72156;SDS011;60035;52.122;5.406;2024-03-08T11:27:12;25.33;;;11.38;;
72156;SDS011;60035;52.122;5.406;2024-03-08T11:29:44;25.50;;;11.30;;
72156;SDS011;60035;52.122;5.406;2024-03-08T11:32:15;25.00;;;11.30;;
72156;SDS011;60035;52.122;5.406;2024-03-08T11:34:51;21.77;;;10.88;;
72156;SDS011;60035;52.122;5.406;2024-03-08T11:37:24;23.48;;;10.48;;
72156;SDS011;60035;52.122;5.406;2024-03-08T11:40:00;24.73;;;11.68;;
72156;SDS011;60035;52.122;5.406;2024-03-08T11:42:32;23.13;;;11.23;;
72156;SDS011;60035;52.122;5.406;2024-03-08T11:45:08;21.02;;;10.13;;
72156;SDS011;60035;52.122;5.406;2024-03-08T11:47:41;21.90;;;10.00;;
72156;SDS011;60035;52.122;5.406;2024-03-08T11:50:16;20.45;;;9.23;;
72156;SDS011;60035;52.122;5.406;2024-03-08T11:52:50;21.73;;;10.32;;
72156;SDS011;60035;52.122;5.406;2024-03-08T11:55:22;21.75;;;10.05;;
72156;SDS011;60035;52.122;5.406;2024-03-08T11:57:59;19.88;;;9.98;;
72156;SDS011;60035;52.122;5.406;2024-03-08T12:00:32;18.85;;;9.10;;
72156;SDS011;60035;52.122;5.406;2024-03-08T12:03:05;19.77;;;9.35;;
72156;SDS011;60035;52.122;5.406;2024-03-08T12:05:40;17.95;;;8.25;;
72156;SDS011;60035;52.122;5.406;2024-03-08T12:08:13;20.50;;;10.30;;
72156;SDS011;60035;52.122;5.406;2024-03-08T12:10:45;21.58;;;10.05;;
72156;SDS011;60035;52.122;5.406;2024-03-08T12:13:16;20.35;;;9.73;;
72156;SDS011;60035;52.122;5.406;2024-03-08T12:15:48;20.00;;;8.75;;
72156;SDS011;60035;52.122;5.406;2024-03-08T12:18:20;19.55;;;8.93;;
72156;SDS011;60035;52.122;5.406;2024-03-08T12:21:06;20.42;;;10.07;;
72156;SDS011;60035;52.122;5.406;2024-03-08T12:23:41;19.23;;;8.80;;
72156;SDS011;60035;52.122;5.406;2024-03-08T12:26:13;19.55;;;9.90;;
72156;SDS011;60035;52.122;5.406;2024-03-08T12:28:45;20.83;;;9.95;;
72156;SDS011;60035;52.122;5.406;2024-03-08T12:31:17;19.63;;;9.30;;
72156;SDS011;60035;52.122;5.406;2024-03-08T12:33:49;21.98;;;10.20;;
72156;SDS011;60035;52.122;5.406;2024-03-08T12:36:26;19.52;;;9.88;;
72156;SDS011;60035;52.122;5.406;2024-03-08T12:38:58;17.88;;;9.00;;
72156;SDS011;60035;52.122;5.406;2024-03-08T12:41:31;19.48;;;9.25;;
72156;SDS011;60035;52.122;5.406;2024-03-08T12:44:12;20.67;;;10.20;;
72156;SDS011;60035;52.122;5.406;2024-03-08T12:46:44;20.55;;;10.65;;
72156;SDS011;60035;52.122;5.406;2024-03-08T12:49:19;20.98;;;10.07;;
72156;SDS011;60035;52.122;5.406;2024-03-08T12:51:55;20.13;;;10.25;;
72156;SDS011;60035;52.122;5.406;2024-03-08T12:54:26;19.83;;;9.23;;
72156;SDS011;60035;52.122;5.406;2024-03-08T12:57:13;19.95;;;9.77;;
72156;SDS011;60035;52.122;5.406;2024-03-08T12:59:45;20.02;;;10.20;;
72156;SDS011;60035;52.122;5.406;2024-03-08T13:02:17;19.73;;;10.30;;
72156;SDS011;60035;52.122;5.406;2024-03-08T13:04:49;17.45;;;9.15;;
72156;SDS011;60035;52.122;5.406;2024-03-08T13:07:27;22.92;;;9.90;;
72156;SDS011;60035;52.122;5.406;2024-03-08T13:09:58;18.83;;;8.82;;
72156;SDS011;60035;52.122;5.406;2024-03-08T13:12:30;22.17;;;9.98;;
72156;SDS011;60035;52.122;5.406;2024-03-08T13:15:03;20.25;;;10.48;;
72156;SDS011;60035;52.122;5.406;2024-03-08T13:17:36;20.75;;;9.45;;
72156;SDS011;60035;52.122;5.406;2024-03-08T13:20:07;20.77;;;9.60;;
72156;SDS011;60035;52.122;5.406;2024-03-08T13:22:59;21.75;;;11.90;;
72156;SDS011;60035;52.122;5.406;2024-03-08T13:25:30;19.23;;;9.32;;
72156;SDS011;60035;52.122;5.406;2024-03-08T13:28:02;19.52;;;9.25;;
72156;SDS011;60035;52.122;5.406;2024-03-08T13:30:34;22.48;;;9.15;;
72156;SDS011;60035;52.122;5.406;2024-03-08T13:33:05;21.55;;;10.90;;
72156;SDS011;60035;52.122;5.406;2024-03-08T13:35:37;20.65;;;10.18;;
72156;SDS011;60035;52.122;5.406;2024-03-08T13:38:11;21.00;;;10.90;;
72156;SDS011;60035;52.122;5.406;2024-03-08T13:40:45;20.75;;;9.75;;
72156;SDS011;60035;52.122;5.406;2024-03-08T13:43:21;20.30;;;9.55;;
72156;SDS011;60035;52.122;5.406;2024-03-08T13:45:55;21.15;;;10.48;;
72156;SDS011;60035;52.122;5.406;2024-03-08T13:48:30;20.50;;;9.32;;
72156;SDS011;60035;52.122;5.406;2024-03-08T13:51:04;20.75;;;10.75;;
72156;SDS011;60035;52.122;5.406;2024-03-08T13:53:45;21.23;;;10.20;;
72156;SDS011;60035;52.122;5.406;2024-03-08T13:56:16;22.05;;;11.25;;
72156;SDS011;60035;52.122;5.406;2024-03-08T13:58:53;18.40;;;9.73;;
72156;SDS011;60035;52.122;5.406;2024-03-08T14:01:25;22.25;;;11.30;;
72156;SDS011;60035;52.122;5.406;2024-03-08T14:04:03;20.17;;;10.40;;
72156;SDS011;60035;52.122;5.406;2024-03-08T14:06:43;22.58;;;10.93;;
72156;SDS011;60035;52.122;5.406;2024-03-08T14:09:21;21.77;;;11.48;;
72156;SDS011;60035;52.122;5.406;2024-03-08T14:11:54;19.35;;;10.38;;
72156;SDS011;60035;52.122;5.406;2024-03-08T14:14:26;20.70;;;10.27;;
72156;SDS011;60035;52.122;5.406;2024-03-08T14:17:00;20.33;;;10.05;;
72156;SDS011;60035;52.122;5.406;2024-03-08T14:19:38;20.42;;;10.45;;
72156;SDS011;60035;52.122;5.406;2024-03-08T14:22:10;19.92;;;9.85;;
72156;SDS011;60035;52.122;5.406;2024-03-08T14:24:46;20.33;;;11.68;;
72156;SDS011;60035;52.122;5.406;2024-03-08T14:27:19;18.50;;;9.63;;
72156;SDS011;60035;52.122;5.406;2024-03-08T14:29:51;22.85;;;10.63;;
72156;SDS011;60035;52.122;5.406;2024-03-08T14:32:25;20.52;;;10.80;;
72156;SDS011;60035;52.122;5.406;2024-03-08T14:34:59;20.00;;;11.15;;
72156;SDS011;60035;52.122;5.406;2024-03-08T14:37:34;21.13;;;11.90;;
72156;SDS011;60035;52.122;5.406;2024-03-08T14:40:12;21.48;;;11.90;;
72156;SDS011;60035;52.122;5.406;2024-03-08T14:42:44;20.40;;;10.65;;
72156;SDS011;60035;52.122;5.406;2024-03-08T14:45:16;18.77;;;10.93;;
72156;SDS011;60035;52.122;5.406;2024-03-08T14:47:48;19.77;;;10.55;;
72156;SDS011;60035;52.122;5.406;2024-03-08T14:50:22;22.88;;;11.15;;
72156;SDS011;60035;52.122;5.406;2024-03-08T14:52:55;19.65;;;10.50;;
72156;SDS011;60035;52.122;5.406;2024-03-08T14:55:31;18.17;;;10.82;;
72156;SDS011;60035;52.122;5.406;2024-03-08T14:58:03;19.85;;;10.32;;
72156;SDS011;60035;52.122;5.406;2024-03-08T15:00:36;19.52;;;11.82;;
72156;SDS011;60035;52.122;5.406;2024-03-08T15:03:09;19.65;;;12.02;;
72156;SDS011;60035;52.122;5.406;2024-03-08T15:05:44;20.08;;;11.38;;
72156;SDS011;60035;52.122;5.406;2024-03-08T15:08:17;21.33;;;11.55;;
72156;SDS011;60035;52.122;5.406;2024-03-08T15:10:54;20.73;;;10.80;;
72156;SDS011;60035;52.122;5.406;2024-03-08T15:13:26;21.20;;;11.35;;
72156;SDS011;60035;52.122;5.406;2024-03-08T15:16:06;22.80;;;10.13;;
72156;SDS011;60035;52.122;5.406;2024-03-08T15:18:44;21.92;;;11.10;;
72156;SDS011;60035;52.122;5.406;2024-03-08T15:21:19;22.80;;;10.70;;
72156;SDS011;60035;52.122;5.406;2024-03-08T15:23:53;19.58;;;9.80;;
72156;SDS011;60035;52.122;5.406;2024-03-08T15:26:27;19.95;;;10.30;;
72156;SDS011;60035;52.122;5.406;2024-03-08T15:28:59;19.85;;;10.48;;
72156;SDS011;60035;52.122;5.406;2024-03-08T15:31:32;20.52;;;9.68;;
72156;SDS011;60035;52.122;5.406;2024-03-08T15:34:05;21.38;;;10.52;;
72156;SDS011;60035;52.122;5.406;2024-03-08T15:36:38;23.25;;;10.65;;
72156;SDS011;60035;52.122;5.406;2024-03-08T15:39:10;19.38;;;10.32;;
72156;SDS011;60035;52.122;5.406;2024-03-08T15:41:44;22.05;;;10.02;;
72156;SDS011;60035;52.122;5.406;2024-03-08T15:44:15;21.40;;;10.05;;
72156;SDS011;60035;52.122;5.406;2024-03-08T15:46:50;19.17;;;9.23;;
72156;SDS011;60035;52.122;5.406;2024-03-08T15:49:21;20.25;;;9.02;;
72156;SDS011;60035;52.122;5.406;2024-03-08T15:51:54;20.70;;;9.65;;
72156;SDS011;60035;52.122;5.406;2024-03-08T15:54:25;23.65;;;9.98;;
72156;SDS011;60035;52.122;5.406;2024-03-08T15:56:59;23.38;;;9.75;;
72156;SDS011;60035;52.122;5.406;2024-03-08T15:59:38;26.25;;;9.77;;
72156;SDS011;60035;52.122;5.406;2024-03-08T16:02:10;20.60;;;10.38;;
72156;SDS011;60035;52.122;5.406;2024-03-08T16:04:41;20.02;;;10.23;;